createdAt,value
2023-03-11T00:00:50.780Z,12.85
2023-03-11T00:03:23.356Z,8.55
2023-03-11T00:05:53.826Z,7.63
2023-03-11T00:08:25.849Z,7.28
2023-03-11T00:10:56.707Z,7.88
2023-03-11T00:13:25.185Z,7.20
2023-03-11T00:15:56.425Z,7.70
2023-03-11T00:18:27.270Z,7.43
2023-03-11T00:20:57.010Z,6.68
2023-03-11T00:23:28.096Z,7.05
2023-03-11T00:25:56.821Z,7.20
2023-03-11T00:28:26.935Z,6.30
2023-03-11T00:30:56.276Z,7.40
2023-03-11T00:33:24.887Z,6.55
2023-03-11T00:35:53.458Z,5.45
2023-03-11T00:38:22.618Z,8.00
2023-03-11T00:40:52.650Z,6.55
2023-03-11T00:43:21.109Z,6.55
2023-03-11T00:45:49.576Z,7.95
2023-03-11T00:48:18.189Z,13.85
2023-03-11T00:50:46.815Z,14.07
2023-03-11T00:53:15.304Z,14.25
2023-03-11T00:55:44.374Z,12.25
2023-03-11T00:58:15.925Z,11.88
2023-03-11T01:00:48.511Z,9.90
2023-03-11T01:03:17.189Z,13.98
2023-03-11T01:05:47.145Z,13.75
2023-03-11T01:08:15.659Z,14.07
2023-03-11T01:10:44.174Z,10.52
2023-03-11T01:13:15.589Z,12.98
2023-03-11T01:15:44.197Z,10.15
2023-03-11T01:18:12.697Z,9.68
2023-03-11T01:20:41.562Z,10.20
2023-03-11T01:23:10.538Z,9.75
2023-03-11T01:25:39.066Z,9.50
2023-03-11T01:28:08.878Z,8.93
2023-03-11T01:30:40.826Z,8.68
2023-03-11T01:33:14.722Z,8.50
2023-03-11T01:35:43.778Z,7.95
2023-03-11T01:38:12.727Z,8.73
2023-03-11T01:40:43.262Z,9.52
2023-03-11T01:43:41.601Z,8.10
2023-03-11T01:46:19.509Z,7.80
2023-03-11T01:49:14.226Z,8.07
2023-03-11T01:51:45.841Z,9.95
2023-03-11T01:54:19.850Z,7.72
2023-03-11T01:56:49.561Z,8.45
2023-03-11T01:59:22.665Z,8.25
2023-03-11T02:01:56.773Z,7.32
2023-03-11T02:06:54.955Z,7.97
2023-03-11T02:09:27.143Z,5.82
2023-03-11T02:11:57.480Z,7.03
2023-03-11T02:14:30.383Z,7.13
2023-03-11T02:17:01.217Z,6.68
2023-03-11T02:19:40.136Z,7.18
2023-03-11T02:22:10.315Z,6.95
2023-03-11T02:24:46.457Z,6.97
2023-03-11T02:27:19.638Z,6.95
2023-03-11T02:29:51.866Z,6.03
2023-03-11T02:32:21.887Z,7.78
2023-03-11T02:34:50.529Z,7.05
2023-03-11T02:37:20.301Z,7.50
2023-03-11T02:39:56.784Z,7.35
2023-03-11T02:42:29.831Z,7.38
2023-03-11T02:45:04.472Z,7.07
2023-03-11T02:47:34.706Z,6.97
2023-03-11T02:50:03.788Z,6.55
2023-03-11T02:52:34.896Z,6.05
2023-03-11T02:55:03.866Z,7.30
2023-03-11T02:57:33.827Z,6.78
2023-03-11T03:00:14.341Z,7.35
2023-03-11T03:02:51.808Z,6.22
2023-03-11T03:05:21.460Z,7.38
2023-03-11T03:07:53.604Z,6.63
2023-03-11T03:10:23.593Z,7.28
2023-03-11T03:12:53.505Z,6.93
2023-03-11T03:15:22.025Z,6.60
2023-03-11T03:17:51.693Z,7.68
2023-03-11T03:20:22.799Z,7.15
2023-03-11T03:22:55.927Z,6.60
2023-03-11T03:28:00.638Z,7.43
2023-03-11T03:30:31.755Z,8.32
2023-03-11T03:33:00.945Z,6.80
2023-03-11T03:35:31.081Z,6.72
2023-03-11T03:38:04.764Z,7.20
2023-03-11T03:40:34.269Z,8.50
2023-03-11T03:43:07.237Z,8.32
2023-03-11T03:45:37.620Z,10.25
2023-03-11T03:48:07.222Z,11.52
2023-03-11T03:50:41.585Z,13.20
2023-03-11T03:53:12.649Z,12.20
2023-03-11T03:55:41.156Z,12.40
2023-03-11T03:58:11.942Z,11.30
2023-03-11T04:00:40.783Z,10.63
2023-03-11T04:03:09.326Z,11.38
2023-03-11T04:05:47.553Z,10.20
2023-03-11T04:08:16.640Z,10.43
2023-03-11T04:10:45.553Z,10.52
2023-03-11T04:13:15.513Z,9.93
2023-03-11T04:15:46.133Z,10.50
2023-03-11T04:18:14.803Z,10.55
2023-03-11T04:20:43.372Z,11.27
2023-03-11T04:23:13.131Z,12.43
2023-03-11T04:25:42.026Z,15.57
2023-03-11T04:28:10.560Z,14.40
2023-03-11T04:30:40.894Z,13.43
2023-03-11T04:33:09.390Z,12.80
2023-03-11T04:35:39.843Z,14.07
2023-03-11T04:38:09.049Z,13.77
2023-03-11T04:40:38.652Z,13.30
2023-03-11T04:43:07.315Z,13.52
2023-03-11T04:45:36.949Z,12.05
2023-03-11T04:48:07.616Z,12.50
2023-03-11T04:50:37.747Z,12.95
2023-03-11T04:53:06.849Z,12.77
2023-03-11T04:55:35.842Z,12.93
2023-03-11T04:58:04.424Z,11.90
2023-03-11T05:00:34.100Z,12.40
2023-03-11T05:03:10.927Z,12.90
2023-03-11T05:05:39.931Z,11.38
2023-03-11T05:08:09.015Z,11.35
2023-03-11T05:10:37.616Z,10.80
2023-03-11T05:13:08.619Z,11.82
2023-03-11T05:15:39.640Z,11.63
2023-03-11T05:18:10.775Z,11.38
2023-03-11T05:20:40.428Z,11.73
2023-03-11T05:23:10.626Z,11.70
2023-03-11T05:25:39.709Z,12.48
2023-03-11T05:28:09.069Z,12.15
2023-03-11T05:30:42.809Z,13.38
2023-03-11T05:33:12.941Z,13.32
2023-03-11T05:35:42.920Z,12.73
2023-03-11T05:38:11.738Z,12.75
2023-03-11T05:40:40.267Z,12.52
2023-03-11T05:43:08.855Z,12.02
2023-03-11T05:45:40.574Z,11.18
2023-03-11T05:48:09.074Z,11.32
2023-03-11T05:50:40.909Z,11.80
2023-03-11T05:53:09.581Z,12.07
2023-03-11T05:55:38.095Z,11.32
2023-03-11T05:58:06.702Z,11.25
2023-03-11T06:00:35.779Z,12.02
2023-03-11T06:03:05.967Z,10.35
2023-03-11T06:05:34.487Z,10.27
2023-03-11T06:08:04.541Z,12.02
2023-03-11T06:10:33.048Z,11.63
2023-03-11T06:13:01.608Z,9.20
2023-03-11T06:15:35.081Z,9.73
2023-03-11T06:18:03.866Z,8.57
2023-03-11T06:20:32.678Z,8.65
2023-03-11T06:23:01.159Z,8.77
2023-03-11T06:25:31.028Z,8.77
2023-03-11T06:27:59.463Z,8.20
2023-03-11T06:30:28.422Z,7.43
2023-03-11T06:33:05.458Z,7.18
2023-03-11T06:35:34.529Z,7.60
2023-03-11T06:38:02.990Z,8.10
2023-03-11T06:40:33.161Z,10.13
2023-03-11T06:43:01.747Z,10.95
2023-03-11T06:45:34.529Z,7.25
2023-03-11T06:48:03.484Z,9.07
2023-03-11T06:50:33.304Z,8.18
2023-03-11T06:53:06.724Z,7.10
2023-03-11T06:55:38.082Z,6.68
2023-03-11T06:58:06.577Z,7.45
2023-03-11T07:00:35.320Z,7.95
2023-03-11T07:03:06.124Z,8.00
2023-03-11T07:05:34.868Z,7.43
2023-03-11T07:08:08.000Z,7.15
2023-03-11T07:10:38.287Z,7.47
2023-03-11T07:13:06.805Z,7.10
2023-03-11T07:15:35.828Z,7.65
2023-03-11T07:18:04.402Z,6.53
2023-03-11T07:20:32.951Z,7.55
2023-03-11T07:23:01.411Z,7.63
2023-03-11T07:25:31.031Z,8.93
2023-03-11T07:28:00.925Z,7.65
2023-03-11T07:30:29.659Z,6.55
2023-03-11T07:32:58.570Z,6.50
2023-03-11T07:35:27.080Z,6.72
2023-03-11T07:37:56.760Z,7.25
2023-03-11T07:40:25.196Z,7.13
2023-03-11T07:42:53.683Z,6.72
2023-03-11T07:45:24.693Z,7.00
2023-03-11T07:47:53.446Z,8.23
2023-03-11T07:50:22.704Z,10.85
2023-03-11T07:52:51.188Z,9.90
2023-03-11T07:55:19.867Z,7.03
2023-03-11T07:57:49.284Z,6.95
2023-03-11T08:00:18.971Z,10.98
2023-03-11T08:02:49.354Z,11.98
2023-03-11T08:05:18.715Z,5.90
2023-03-11T08:07:47.178Z,6.82
2023-03-11T08:10:15.632Z,5.68
2023-03-11T08:12:44.751Z,6.28
2023-03-11T08:15:13.934Z,5.97
2023-03-11T08:17:42.388Z,5.50
2023-03-11T08:20:13.788Z,7.63
2023-03-11T08:22:55.639Z,7.95
2023-03-11T08:25:24.317Z,5.55
2023-03-11T08:27:52.838Z,5.60
2023-03-11T08:30:21.532Z,8.55
2023-03-11T08:32:50.466Z,6.78
2023-03-11T08:35:20.509Z,5.45
2023-03-11T08:37:49.358Z,5.70
2023-03-11T08:40:18.969Z,5.72
2023-03-11T08:42:47.460Z,5.78
2023-03-11T08:45:16.018Z,6.97
2023-03-11T08:47:44.693Z,5.50
2023-03-11T08:50:16.792Z,5.05
2023-03-11T08:52:47.104Z,5.38
2023-03-11T08:55:18.690Z,6.32
2023-03-11T08:57:47.181Z,5.32
2023-03-11T09:00:19.511Z,4.93
2023-03-11T09:02:48.214Z,5.55
2023-03-11T09:05:17.821Z,5.63
2023-03-11T09:07:50.113Z,6.18
2023-03-11T09:10:20.867Z,6.18
2023-03-11T09:12:49.373Z,5.88
2023-03-11T09:15:18.446Z,5.53
2023-03-11T09:17:47.178Z,6.93
2023-03-11T09:20:17.150Z,6.45
2023-03-11T09:22:45.900Z,6.88
2023-03-11T09:25:16.423Z,7.80
2023-03-11T09:27:48.527Z,8.43
2023-03-11T09:30:17.281Z,7.82
2023-03-11T09:32:50.341Z,8.52
2023-03-11T09:35:19.289Z,8.38
2023-03-11T09:37:47.771Z,6.05
2023-03-11T09:40:22.523Z,7.25
2023-03-11T09:43:06.351Z,6.35
2023-03-11T09:45:40.003Z,6.72
2023-03-11T09:48:22.860Z,7.43
2023-03-11T09:50:59.272Z,5.43
2023-03-11T09:53:39.658Z,7.40
2023-03-11T09:56:14.461Z,7.05
2023-03-11T09:58:47.304Z,5.93
2023-03-11T10:01:24.807Z,6.45
2023-03-11T10:03:56.548Z,5.65
2023-03-11T10:06:27.465Z,5.05
2023-03-11T10:09:02.457Z,5.53
2023-03-11T10:11:49.922Z,5.47
2023-03-11T10:14:33.212Z,6.57
2023-03-11T10:17:09.448Z,4.63
2023-03-11T10:19:49.734Z,4.80
2023-03-11T10:22:28.177Z,4.93
2023-03-11T10:25:05.537Z,5.93
2023-03-11T10:27:44.695Z,5.25
2023-03-11T10:30:26.081Z,5.03
2023-03-11T10:32:59.415Z,4.75
2023-03-11T10:35:35.547Z,4.97
2023-03-11T10:38:11.820Z,5.30
2023-03-11T10:40:44.398Z,5.55
2023-03-11T10:43:18.186Z,5.40
2023-03-11T10:45:48.746Z,4.97
2023-03-11T10:48:19.879Z,5.32
2023-03-11T10:50:54.034Z,5.80
2023-03-11T10:53:22.772Z,5.00
2023-03-11T10:55:53.390Z,5.05
2023-03-11T10:58:27.126Z,6.00
2023-03-11T11:01:04.125Z,5.93
2023-03-11T11:03:34.182Z,6.30
2023-03-11T11:06:05.543Z,6.13
2023-03-11T11:08:35.423Z,6.88
2023-03-11T11:11:05.748Z,6.60
2023-03-11T11:13:36.015Z,7.20
2023-03-11T11:16:06.389Z,6.53
2023-03-11T11:18:40.853Z,7.22
2023-03-11T11:21:14.950Z,6.45
2023-03-11T11:26:21.960Z,6.38
2023-03-11T11:29:09.256Z,6.18
2023-03-11T11:31:39.028Z,6.45
2023-03-11T11:34:28.660Z,7.20
2023-03-11T11:37:00.496Z,7.47
2023-03-11T11:39:33.614Z,6.35
2023-03-11T11:42:03.236Z,5.63
2023-03-11T11:44:35.199Z,7.65
2023-03-11T11:47:12.566Z,6.72
2023-03-11T11:49:50.039Z,7.90
2023-03-11T11:52:22.026Z,11.93
2023-03-11T11:54:55.287Z,8.80
2023-03-11T11:57:24.891Z,7.60
2023-03-11T11:59:57.554Z,8.45
2023-03-11T12:02:43.849Z,8.68
2023-03-11T12:05:19.938Z,8.50
2023-03-11T12:08:04.735Z,8.05
2023-03-11T12:10:38.496Z,7.88
2023-03-11T12:13:37.220Z,7.55
2023-03-11T12:16:15.483Z,7.47
2023-03-11T12:18:54.614Z,7.60
2023-03-11T12:21:36.990Z,6.95
2023-03-11T12:24:22.896Z,6.93
2023-03-11T12:26:54.803Z,6.47
2023-03-11T12:29:29.839Z,7.13
2023-03-11T12:32:03.114Z,6.25
2023-03-11T12:34:39.002Z,8.35
2023-03-11T12:37:17.122Z,6.65
2023-03-11T12:39:45.640Z,6.22
2023-03-11T12:42:22.112Z,6.10
2023-03-11T12:44:51.609Z,5.97
2023-03-11T12:47:27.401Z,6.13
2023-03-11T12:49:58.632Z,6.35
2023-03-11T12:52:29.813Z,6.20
2023-03-11T12:55:31.836Z,6.38
2023-03-11T12:58:47.695Z,5.82
2023-03-11T13:01:31.473Z,6.05
2023-03-11T13:04:15.572Z,6.45
2023-03-11T13:07:25.902Z,6.80
2023-03-11T13:10:20.494Z,6.07
2023-03-11T13:12:50.985Z,6.00
2023-03-11T13:15:36.459Z,6.57
2023-03-11T13:18:16.742Z,5.60
2023-03-11T13:20:57.854Z,6.65
2023-03-11T13:23:38.089Z,5.78
2023-03-11T13:26:28.853Z,5.43
2023-03-11T13:29:41.625Z,5.20
2023-03-11T13:32:39.988Z,6.32
2023-03-11T13:35:23.175Z,6.00
2023-03-11T13:38:14.490Z,6.07
2023-03-11T13:40:44.987Z,6.15
2023-03-11T13:43:18.231Z,5.82
2023-03-11T13:45:53.734Z,5.47
2023-03-11T13:48:28.336Z,4.55
2023-03-11T13:51:01.840Z,4.95
2023-03-11T13:53:40.000Z,6.05
2023-03-11T13:56:18.879Z,6.40
2023-03-11T13:58:50.061Z,6.20
2023-03-11T14:01:20.048Z,5.53
2023-03-11T14:03:49.686Z,7.18
2023-03-11T14:06:20.270Z,6.93
2023-03-11T14:08:57.141Z,5.68
2023-03-11T14:11:29.275Z,5.65
2023-03-11T14:13:57.875Z,5.93
2023-03-11T14:16:33.786Z,6.03
2023-03-11T14:19:08.930Z,6.85
2023-03-11T14:21:37.447Z,5.63
2023-03-11T14:24:17.875Z,6.13
2023-03-11T14:26:48.107Z,5.00
2023-03-11T14:29:19.574Z,6.38
2023-03-11T14:31:49.349Z,6.10
2023-03-11T14:34:21.610Z,6.47
2023-03-11T14:36:54.437Z,6.07
2023-03-11T14:42:04.411Z,5.47
2023-03-11T14:44:35.903Z,5.75
2023-03-11T14:47:12.570Z,6.40
2023-03-11T14:49:41.968Z,5.80
2023-03-11T14:52:19.908Z,6.18
2023-03-11T14:54:50.897Z,6.35
2023-03-11T14:57:22.843Z,5.40
2023-03-11T14:59:53.381Z,5.85
2023-03-11T15:02:39.147Z,5.95
2023-03-11T15:05:13.841Z,6.18
2023-03-11T15:07:42.455Z,6.07
2023-03-11T15:10:14.292Z,6.03
2023-03-11T15:12:44.993Z,5.80
2023-03-11T15:15:25.178Z,7.00
2023-03-11T15:18:03.463Z,6.07
2023-03-11T15:20:33.879Z,5.90
2023-03-11T15:23:04.212Z,6.03
2023-03-11T15:25:38.746Z,6.38
2023-03-11T15:28:24.419Z,5.57
2023-03-11T15:31:14.879Z,5.75
2023-03-11T15:33:45.560Z,6.03
2023-03-11T15:36:31.828Z,5.65
2023-03-11T15:39:18.925Z,6.47
2023-03-11T15:42:01.243Z,6.15
2023-03-11T15:44:33.187Z,5.40
2023-03-11T15:47:01.676Z,6.15
2023-03-11T15:49:33.023Z,5.32
2023-03-11T15:52:03.473Z,5.65
2023-03-11T15:54:31.982Z,5.50
2023-03-11T15:57:03.819Z,5.35
2023-03-11T15:59:32.492Z,5.80
2023-03-11T16:02:01.330Z,5.45
2023-03-11T16:04:30.379Z,5.97
2023-03-11T16:07:07.768Z,5.68
2023-03-11T16:09:37.165Z,5.63
2023-03-11T16:12:16.047Z,6.10
2023-03-11T16:14:44.570Z,6.40
2023-03-11T16:17:14.761Z,5.93
2023-03-11T16:19:44.354Z,6.72
2023-03-11T16:22:19.271Z,6.07
2023-03-11T16:24:50.101Z,6.95
2023-03-11T16:27:21.008Z,6.25
2023-03-11T16:29:52.415Z,6.70
2023-03-11T16:32:20.928Z,6.70
2023-03-11T16:34:49.666Z,6.95
2023-03-11T16:37:21.491Z,6.95
2023-03-11T16:39:50.073Z,6.88
2023-03-11T16:42:24.767Z,7.30
2023-03-11T16:44:53.339Z,6.35
2023-03-11T16:47:21.855Z,6.50
2023-03-11T16:49:53.572Z,6.15
2023-03-11T16:52:24.842Z,7.82
2023-03-11T16:54:53.504Z,6.53
2023-03-11T16:57:23.976Z,6.43
2023-03-11T16:59:53.317Z,6.70
2023-03-11T17:02:24.652Z,6.72
2023-03-11T17:04:53.450Z,6.43
2023-03-11T17:07:24.268Z,6.68
2023-03-11T17:09:52.769Z,7.03
2023-03-11T17:12:25.956Z,7.03
2023-03-11T17:15:21.988Z,6.55
2023-03-11T17:17:51.632Z,6.68
2023-03-11T18:14:19.348Z,7.70
2023-03-11T18:16:50.239Z,7.00
2023-03-11T18:19:18.843Z,7.18
2023-03-11T18:21:47.348Z,8.00
2023-03-11T18:24:16.382Z,7.22
2023-03-11T18:26:45.090Z,7.18
2023-03-11T23:36:19.699Z,3.13
2023-03-11T23:38:51.143Z,2.47
2023-03-11T23:41:21.853Z,3.00
2023-03-11T23:43:50.616Z,3.08
2023-03-11T23:46:19.220Z,2.97
2023-03-11T23:48:48.707Z,3.53
2023-03-11T23:51:23.878Z,3.50
2023-03-11T23:54:02.202Z,3.03
2023-03-11T23:56:34.482Z,3.03
2023-03-11T23:59:04.660Z,3.28
